Latest Coastal Weather Observations for Taree Airport

IDN60701

Issued at 2:01 pm EDT Sunday 29 March 2015 (issued every 10 minutes, with the page automatically refreshed every 10 minutes)

About coastal observations | Map of coastal stations | Coastal observations for NSW | Marine services | Other Formats
Station Details ID: 060141 Name: TAREE AIRPORT AWS Lat: -31.89 Lon: 152.51 Height: 8.0 m
Data from the previous 72 hours. | See also: Recent months at Taree Airport
Date/Time
EDT
Temp

°C
Wind Pressure Rain
since 9am
mm
Weather Cloud Vis
km
Sea
Height
m
Swell
Dir
 
Speed
knots
Gust
knots
hPa Trend Height
m
Period
s
Dir
29/02:00pm 24.9 ESE 10 14 1021.4 - 0.0 - - 10 - - - -
29/01:30pm 25.4 ESE 8 12 1021.5 - 0.0 - Partly cloudy 10 - - - -
29/01:00pm 25.4 ENE 7 11 1022.0 - 0.0 - Partly cloudy 10 - - - -
29/12:30pm 25.5 NE 6 10 1022.2 - 0.0 - Partly cloudy 10 - - - -
29/12:00pm 25.6 NE 7 12 1022.4 - 0.0 - Partly cloudy 10 - - - -
29/11:30am 24.8 NE 8 12 1022.6 - 0.0 - - 10 - - - -
29/11:00am 23.7 ENE 6 8 1023.0 - 0.0 - - 10 - - - -
29/10:00am 20.7 W 4 6 1023.8 - 0.0 - Partly cloudy 10 - - - -
29/09:30am 19.4 W 5 8 1023.8 - 0.0 - - 10 - - - -
29/09:00am 17.9 W 5 7 1023.6 - 0.0 - - 10 - - - -
29/08:30am 16.4 WNW 4 6 1023.1 - 0.0 - - 10 - - - -
29/08:00am 15.8 NW 1 4 1022.7 - 0.0 - Partly cloudy 10 - - - -
29/07:30am 15.0 NW 3 4 1022.6 - 0.0 - - 10 - - - -
29/07:00am 14.4 NW 4 5 1022.5 - 0.0 - Partly cloudy 10 - - - -
29/06:30am 15.0 WNW 3 6 1022.0 - 0.0 - Partly cloudy 10 - - - -
29/06:00am 15.1 W 4 5 1022.0 - 0.0 - Cloudy 10 - - - -
29/05:30am 14.6 CALM 0 0 1021.7 - 0.0 - Partly cloudy 10 - - - -
29/05:00am 15.0 W 3 4 1021.5 - 0.0 - - 10 - - - -
29/04:30am 15.0 CALM 0 0 1021.3 - 0.0 - - 10 - - - -
29/04:00am 14.2 NNW 4 4 1021.4 - 0.0 - - 10 - - - -
29/03:30am 15.4 WSW 4 5 1021.4 - 0.0 - - 10 - - - -
29/03:00am 15.2 NW 4 5 1021.8 - 0.0 - Mostly clear 10 - - - -
29/02:30am 15.6 NW 1 3 1022.0 - 0.0 - - - - - - -
29/02:00am 16.0 W 3 5 1022.0 - 0.0 - - - - - - -
29/01:30am 15.9 CALM 0 0 1022.1 - 0.0 - - - - - - -
29/01:00am 16.7 W 4 4 1022.3 - 0.0 - - - - - - -
29/12:30am 17.1 W 4 5 1022.5 - 0.0 - - - - - - -
29/12:00am 17.4 W 4 5 1022.7 - 0.0 - - - - - - -
 
Date/Time
EDT
Temp

°C
Wind Pressure Rain
since 9am
mm
Weather Cloud Vis
km
Sea
Height
m
Swell
Dir
 
Speed
knots
Gust
knots
hPa Trend Height
m
Period
s
Dir
28/11:30pm 17.3 NW 4 4 1022.9 - 0.0 - - - - - - -
28/11:00pm 17.9 NW 4 4 1023.1 - 0.0 - - - - - - -
28/10:30pm 18.0 NW 4 5 1023.1 - 0.0 - - - - - - -
28/10:00pm 18.0 N 2 4 1023.2 - 0.0 - - - - - - -
28/09:30pm 18.7 WSW 5 6 1023.0 - 0.0 - - - - - - -
28/09:00pm 18.6 W 4 5 1022.7 - 0.0 - - - - - - -
28/08:30pm 18.8 SW 4 5 1022.2 - 0.0 - - - - - - -
28/08:00pm 19.2 SSW 4 5 1022.1 - 0.0 - - 10 - - - -
28/07:30pm 20.0 S 3 5 1021.7 - 0.0 - Partly cloudy 10 - - - -
28/07:00pm 20.9 SE 5 7 1021.3 - 0.0 - - 10 - - - -
28/06:30pm 21.7 SE 6 8 1021.2 - 0.0 - - 10 - - - -
28/06:00pm 22.2 SE 8 13 1020.9 - 0.0 - - 10 - - - -
28/05:30pm 22.6 SE 9 13 1020.6 - 0.0 - - 10 - - - -
28/05:00pm 23.1 SE 10 14 1020.4 - 0.0 - - 10 - - - -
28/04:30pm 23.6 SE 9 13 1020.6 - 0.0 - - 10 - - - -
28/04:00pm 23.4 SSE 11 15 1020.6 - 0.0 - - 10 - - - -
28/03:30pm 24.0 SE 11 15 1020.6 - 0.0 - - 10 - - - -
28/03:00pm 25.0 NW 3 10 1020.7 - 0.0 - - 10 - - - -
28/02:30pm 24.4 SSE 3 5 1021.0 - 0.0 - - 10 - - - -
28/02:00pm 24.5 SW 5 6 1021.2 - 0.0 - - 10 - - - -
28/01:30pm 23.7 WNW 4 6 1021.6 - 0.0 - - 10 - - - -
28/01:00pm 23.9 WSW 4 7 1021.8 - 0.0 - - 10 - - - -
28/12:30pm 23.4 WNW 5 7 1022.1 - 0.0 - - 10 - - - -
28/12:00pm 22.6 SW 5 7 1022.5 - 0.0 - - 10 - - - -
28/11:30am 22.6 NNW 4 6 1022.8 - 0.0 - - 10 - - - -
28/11:00am 21.9 W 5 8 1022.9 - 0.0 - - 10 - - - -
28/10:30am 20.7 W 7 9 1023.1 - 0.0 - - 10 - - - -
28/10:00am 19.7 W 7 10 1023.0 - 0.0 - - 10 - - - -
28/09:30am 18.7 W 7 9 1022.9 - 0.0 - - 10 - - - -
28/09:00am 17.5 NW 5 7 1022.8 - 0.0 - - 10 - - - -
28/08:30am 15.9 NW 5 6 1022.6 - 0.0 - - 10 - - - -
28/08:00am 13.8 WNW 5 6 1022.1 - 0.0 - - 10 - - - -
28/07:30am 10.8 NNW 5 5 1021.7 - 0.0 - - 10 - - - -
28/07:00am 10.1 CALM 0 0 1021.1 - 0.0 - - 10 - - - -
28/06:30am 10.8 W 2 4 1020.8 - 0.0 - - 10 - - - -
28/06:00am 11.1 CALM 0 0 1020.4 - 0.0 - - 10 - - - -
28/05:30am 11.1 N 1 4 1019.8 - 0.0 - - 10 - - - -
28/05:00am 10.4 N 1 4 1019.5 - 0.0 - - 10 - - - -
28/04:30am 10.2 WNW 3 4 1019.4 - 0.0 - - 10 - - - -
28/04:00am 10.6 CALM 0 0 1019.5 - 0.0 - - 10 - - - -
28/03:30am 10.4 CALM 0 0 1019.5 - 0.0 - - 10 - - - -
28/03:00am 10.9 CALM 0 0 1019.4 - 0.0 - - 10 - - - -
28/02:30am 12.3 WNW 3 4 1019.6 - 0.0 - - 10 - - - -
28/02:00am 13.1 W 4 5 1019.7 - 0.0 - - 10 - - - -
28/01:30am 13.2 NW 3 4 1019.8 - 0.0 - - 10 - - - -
28/01:00am 14.0 WNW 3 4 1019.7 - 0.0 - - 10 - - - -
28/12:30am 13.2 CALM 0 0 1019.9 - 0.0 - - 10 - - - -
28/12:00am 14.2 CALM 0 0 1019.9 - 0.0 - - 10 - - - -
 
Date/Time
EDT
Temp

°C
Wind Pressure Rain
since 9am
mm
Weather Cloud Vis
km
Sea
Height
m
Swell
Dir
 
Speed
knots
Gust
knots
hPa Trend Height
m
Period
s
Dir
27/11:30pm 14.6 W 3 5 1019.8 - 0.0 - - 10 - - - -
27/11:00pm 14.5 CALM 0 0 1019.9 - 0.0 - - 10 - - - -
27/10:30pm 14.7 CALM 0 0 1020.0 - 0.0 - - 10 - - - -
27/10:00pm 15.3 CALM 0 3 1019.9 - 0.0 - - 10 - - - -
27/09:30pm 16.3 CALM 0 0 1020.0 - 0.0 - - 10 - - - -
27/09:00pm 15.5 N 3 5 1019.7 - 0.0 - - 10 - - - -
27/08:30pm 16.0 CALM 0 3 1019.5 - 0.0 - - 10 - - - -
27/08:00pm 17.2 NNW 3 4 1019.2 - 0.0 - - 10 - - - -
27/07:30pm 18.1 CALM 0 0 1019.0 - 0.0 - - 10 - - - -
27/07:00pm 19.2 NE 3 4 1018.6 - 0.0 - - 10 - - - -
27/06:30pm 20.7 E 7 9 1018.5 - 0.0 - - 10 - - - -
27/06:00pm 21.7 E 6 8 1018.1 - 0.0 - - 10 - - - -
27/05:30pm 22.2 ESE 8 12 1017.7 - 0.0 - - 10 - - - -
27/05:00pm 22.9 E 8 10 1017.5 - 0.0 - - 10 - - - -
27/04:30pm 23.2 ESE 8 10 1017.4 - 0.0 - - 10 - - - -
27/04:00pm 23.7 E 8 11 1017.6 - 0.0 - - 10 - - - -
27/03:30pm 24.1 ESE 8 11 1017.9 - 0.0 - - 10 - - - -
27/03:00pm 23.8 E 9 11 1018.1 - 0.0 - - 10 - - - -
27/02:30pm 24.3 S 5 8 1018.4 - 0.0 - - 10 - - - -
27/02:00pm 24.6 W 6 8 1018.6 - 0.0 - - 10 - - - -
27/01:30pm 24.1 NNE 4 5 1019.0 - 0.0 - - 10 - - - -
27/01:00pm 23.6 NNW 3 7 1019.5 - 0.0 - - 10 - - - -
27/12:30pm 22.5 S 4 8 1019.9 - 0.0 - - 10 - - - -
27/12:00pm 21.7 WSW 8 11 1020.2 - 0.0 - - 10 - - - -
27/11:30am 21.1 WNW 6 9 1020.6 - 0.0 - - 10 - - - -
27/11:00am 20.2 WSW 7 11 1020.8 - 0.0 - - 10 - - - -
27/10:30am 19.2 SSW 8 10 1020.8 - 0.0 - - 10 - - - -
27/10:00am 18.6 SW 8 10 1021.0 - 0.0 - - 10 - - - -
27/09:30am 17.4 SW 6 7 1021.0 - 0.0 - - 10 - - - -
27/09:00am 15.9 SSW 5 7 1021.0 - 0.0 - - 10 - - - -
27/08:30am 14.7 SSW 1 5 1020.9 - 0.0 - - 10 - - - -
27/08:00am 14.7 SSW 4 5 1020.5 - 0.0 - - 10 - - - -
27/07:30am 13.4 CALM 0 0 1020.1 - 0.0 - - 10 - - - -
27/07:00am 13.6 CALM 0 0 1019.8 - 0.0 - - 10 - - - -
27/06:30am 14.6 W 4 5 1019.4 - 0.0 - - 10 - - - -
27/06:00am 14.8 WSW 4 5 1019.0 - 0.0 - - 10 - - - -
27/05:30am 14.4 SSW 3 5 1018.7 - 0.0 - - 10 - - - -
27/05:00am 14.7 CALM 0 0 1018.6 - 0.0 - - 10 - - - -
27/04:30am 14.1 ENE 4 5 1018.5 - 0.0 - - 10 - - - -
27/04:00am 15.5 SSW 3 4 1018.3 - 0.0 - - 10 - - - -
27/03:30am 16.5 W 6 6 1018.2 - 0.0 - - 10 - - - -
27/03:00am 17.1 W 5 7 1018.2 - 0.0 - - 10 - - - -
27/02:30am 17.9 WNW 6 9 1018.2 - 0.0 - - 10 - - - -
27/02:00am 18.3 WNW 6 7 1018.2 - 0.0 - - 10 - - - -
27/01:30am 18.2 WNW 5 7 1018.2 - 0.0 - - 10 - - - -
27/01:00am 18.6 WNW 6 8 1018.1 - 0.0 - - 10 - - - -
27/12:30am 18.0 CALM 0 0 1017.9 - 0.0 - - 10 - - - -
27/12:00am 19.2 W 5 6 1017.8 - 0.0 - - 10 - - - -
 
Date/Time
EDT
Temp

°C
Wind Pressure Rain
since 9am
mm
Weather Cloud Vis
km
Sea
Height
m
Swell
Dir
 
Speed
knots
Gust
knots
hPa Trend Height
m
Period
s
Dir
26/11:30pm 19.2 WSW 6 7 1017.8 - 0.0 - - 10 - - - -
26/11:00pm 19.7 W 7 8 1017.8 - 0.0 - - 10 - - - -
26/10:30pm 19.5 WSW 7 8 1018.0 - 0.0 - - 10 - - - -
26/10:00pm 19.4 NNW 4 5 1017.7 - 0.0 - - 10 - - - -
26/09:30pm 20.3 WSW 4 5 1017.6 - 0.0 - - 10 - - - -
26/09:00pm 20.9 CALM 0 3 1017.4 - 0.0 - - 10 - - - -
26/08:30pm 21.4 SSW 3 5 1017.1 - 0.0 - - 10 - - - -
26/08:00pm 22.3 SSW 1 3 1016.5 - 0.0 - - 10 - - - -
26/07:30pm 22.6 CALM 0 0 1016.0 - 0.0 - - 10 - - - -
26/07:00pm 23.9 ESE 5 5 1015.6 - 0.0 - - 10 - - - -
26/06:30pm 24.8 ESE 5 7 1015.2 - 0.0 - - 10 - - - -
26/06:00pm 25.9 E 6 9 1014.8 - 0.0 - - 10 - - - -
26/05:30pm 26.6 E 7 9 1014.4 - 0.0 - - 10 - - - -
26/05:00pm 27.1 ESE 7 10 1014.3 - 0.0 - - 10 - - - -
26/04:30pm 27.3 E 7 9 1014.3 - 0.0 - - 10 - - - -
26/04:00pm 28.5 S 4 6 1014.4 - 0.0 - - 10 - - - -
26/03:30pm 28.2 SSE 5 6 1014.5 - 0.0 - - 10 - - - -
26/03:00pm 28.1 SSW 7 9 1014.9 - 0.0 - - 10 - - - -
26/02:30pm 28.3 WSW 7 9 1015.0 - 0.0 - - 10 - - - -

Other Formats:

Comma delimited format used in spreadsheet applications
http://www.bom.gov.au/fwo/IDN60701/IDN60701.95784.axf

JavaScript Object Notation format (JSON) in row-major order
http://www.bom.gov.au/fwo/IDN60701/IDN60701.95784.json